sensor_id;sensor_type;location;lat;lon;timestamp;temperature;humidity
59148;DHT22;44930;52.878;6.168;2023-03-05T00:00:36;3.70;99.90
59148;DHT22;44930;52.878;6.168;2023-03-05T00:03:02;3.80;99.90
59148;DHT22;44930;52.878;6.168;2023-03-05T00:05:27;3.80;99.90
59148;DHT22;44930;52.878;6.168;2023-03-05T00:12:45;4.10;99.90
59148;DHT22;44930;52.878;6.168;2023-03-05T00:15:11;4.00;99.90
59148;DHT22;44930;52.878;6.168;2023-03-05T00:17:37;4.10;99.90
59148;DHT22;44930;52.878;6.168;2023-03-05T00:20:03;3.90;99.90
59148;DHT22;44930;52.878;6.168;2023-03-05T00:24:54;3.90;99.90
59148;DHT22;44930;52.878;6.168;2023-03-05T00:27:21;3.80;99.90
59148;DHT22;44930;52.878;6.168;2023-03-05T00:29:46;3.80;99.90
59148;DHT22;44930;52.878;6.168;2023-03-05T00:32:12;3.60;99.90
59148;DHT22;44930;52.878;6.168;2023-03-05T00:39:30;3.80;99.90
59148;DHT22;44930;52.878;6.168;2023-03-05T00:41:55;3.70;99.90
59148;DHT22;44930;52.878;6.168;2023-03-05T00:44:21;3.70;99.90
59148;DHT22;44930;52.878;6.168;2023-03-05T00:46:47;3.60;99.90
59148;DHT22;44930;52.878;6.168;2023-03-05T00:49:12;3.60;99.90
59148;DHT22;44930;52.878;6.168;2023-03-05T00:51:38;3.70;99.90
59148;DHT22;44930;52.878;6.168;2023-03-05T00:54:04;3.80;99.90
59148;DHT22;44930;52.878;6.168;2023-03-05T00:56:30;3.90;99.90
59148;DHT22;44930;52.878;6.168;2023-03-05T00:58:55;3.80;99.90
59148;DHT22;44930;52.878;6.168;2023-03-05T01:01:21;4.00;99.90
59148;DHT22;44930;52.878;6.168;2023-03-05T01:03:47;4.00;99.90
59148;DHT22;44930;52.878;6.168;2023-03-05T01:06:13;4.20;99.90
59148;DHT22;44930;52.878;6.168;2023-03-05T01:08:42;4.00;99.90
59148;DHT22;44930;52.878;6.168;2023-03-05T01:11:08;3.90;99.90
59148;DHT22;44930;52.878;6.168;2023-03-05T01:13:35;3.90;99.90
59148;DHT22;44930;52.878;6.168;2023-03-05T01:16:01;3.90;99.90
59148;DHT22;44930;52.878;6.168;2023-03-05T01:18:28;3.80;99.90
59148;DHT22;44930;52.878;6.168;2023-03-05T01:20:53;3.90;99.90
59148;DHT22;44930;52.878;6.168;2023-03-05T01:23:19;3.80;99.90
59148;DHT22;44930;52.878;6.168;2023-03-05T01:25:45;3.90;99.90
59148;DHT22;44930;52.878;6.168;2023-03-05T01:28:11;3.90;99.90
59148;DHT22;44930;52.878;6.168;2023-03-05T01:30:36;3.80;99.90
59148;DHT22;44930;52.878;6.168;2023-03-05T01:33:02;3.80;99.90
59148;DHT22;44930;52.878;6.168;2023-03-05T01:35:28;3.80;99.90
59148;DHT22;44930;52.878;6.168;2023-03-05T01:37:54;3.50;99.90
59148;DHT22;44930;52.878;6.168;2023-03-05T01:40:23;3.80;99.90
59148;DHT22;44930;52.878;6.168;2023-03-05T01:43:15;3.50;99.90
59148;DHT22;44930;52.878;6.168;2023-03-05T01:46:23;3.70;99.90
59148;DHT22;44930;52.878;6.168;2023-03-05T01:48:57;3.60;99.90
59148;DHT22;44930;52.878;6.168;2023-03-05T01:51:26;3.60;99.90
59148;DHT22;44930;52.878;6.168;2023-03-05T01:53:54;3.60;99.90
59148;DHT22;44930;52.878;6.168;2023-03-05T01:56:22;3.60;99.90
59148;DHT22;44930;52.878;6.168;2023-03-05T01:58:48;3.60;99.90
59148;DHT22;44930;52.878;6.168;2023-03-05T02:01:15;3.50;99.90
59148;DHT22;44930;52.878;6.168;2023-03-05T02:03:41;3.50;99.90
59148;DHT22;44930;52.878;6.168;2023-03-05T02:06:07;3.50;99.90
59148;DHT22;44930;52.878;6.168;2023-03-05T02:08:32;3.70;99.90
59148;DHT22;44930;52.878;6.168;2023-03-05T02:10:58;3.60;99.90
59148;DHT22;44930;52.878;6.168;2023-03-05T02:13:30;3.60;99.90
59148;DHT22;44930;52.878;6.168;2023-03-05T02:15:57;3.80;99.90
59148;DHT22;44930;52.878;6.168;2023-03-05T02:18:23;3.80;99.90
59148;DHT22;44930;52.878;6.168;2023-03-05T02:20:52;3.50;99.90
59148;DHT22;44930;52.878;6.168;2023-03-05T02:23:20;3.50;99.90
59148;DHT22;44930;52.878;6.168;2023-03-05T02:25:46;3.70;99.90
59148;DHT22;44930;52.878;6.168;2023-03-05T02:30:49;3.90;99.90
59148;DHT22;44930;52.878;6.168;2023-03-05T02:33:16;3.50;99.90
59148;DHT22;44930;52.878;6.168;2023-03-05T02:35:43;3.70;99.90
59148;DHT22;44930;52.878;6.168;2023-03-05T02:38:19;3.80;99.90
59148;DHT22;44930;52.878;6.168;2023-03-05T02:43:11;4.00;99.90
59148;DHT22;44930;52.878;6.168;2023-03-05T02:45:37;3.50;99.90
59148;DHT22;44930;52.878;6.168;2023-03-05T02:48:03;3.70;99.90
59148;DHT22;44930;52.878;6.168;2023-03-05T02:52:56;3.60;99.90
59148;DHT22;44930;52.878;6.168;2023-03-05T02:57:47;3.50;99.90
59148;DHT22;44930;52.878;6.168;2023-03-05T03:00:13;3.50;99.90
59148;DHT22;44930;52.878;6.168;2023-03-05T03:02:39;3.60;99.90
59148;DHT22;44930;52.878;6.168;2023-03-05T03:05:05;3.60;99.90
59148;DHT22;44930;52.878;6.168;2023-03-05T03:07:31;3.80;99.90
59148;DHT22;44930;52.878;6.168;2023-03-05T03:09:58;3.60;99.90
59148;DHT22;44930;52.878;6.168;2023-03-05T03:12:24;3.60;99.90
59148;DHT22;44930;52.878;6.168;2023-03-05T03:14:49;3.60;99.90
59148;DHT22;44930;52.878;6.168;2023-03-05T03:17:16;3.70;99.90
59148;DHT22;44930;52.878;6.168;2023-03-05T03:19:42;3.60;99.90
59148;DHT22;44930;52.878;6.168;2023-03-05T03:22:09;3.40;99.90
59148;DHT22;44930;52.878;6.168;2023-03-05T03:24:36;3.50;99.90
59148;DHT22;44930;52.878;6.168;2023-03-05T03:27:03;3.40;99.90
59148;DHT22;44930;52.878;6.168;2023-03-05T03:29:29;3.50;99.90
59148;DHT22;44930;52.878;6.168;2023-03-05T03:36:47;3.40;99.90
59148;DHT22;44930;52.878;6.168;2023-03-05T03:39:14;3.30;99.90
59148;DHT22;44930;52.878;6.168;2023-03-05T03:41:51;3.40;99.90
59148;DHT22;44930;52.878;6.168;2023-03-05T03:49:22;3.00;99.90
59148;DHT22;44930;52.878;6.168;2023-03-05T03:51:49;3.30;99.90
59148;DHT22;44930;52.878;6.168;2023-03-05T03:54:16;3.30;99.90
59148;DHT22;44930;52.878;6.168;2023-03-05T03:56:42;3.40;99.90
59148;DHT22;44930;52.878;6.168;2023-03-05T04:01:34;3.30;99.90
59148;DHT22;44930;52.878;6.168;2023-03-05T04:04:00;3.40;99.90
59148;DHT22;44930;52.878;6.168;2023-03-05T04:06:26;3.50;99.90
59148;DHT22;44930;52.878;6.168;2023-03-05T04:08:51;3.50;99.90
59148;DHT22;44930;52.878;6.168;2023-03-05T04:11:17;3.70;99.90
59148;DHT22;44930;52.878;6.168;2023-03-05T04:13:47;3.50;99.90
59148;DHT22;44930;52.878;6.168;2023-03-05T04:16:13;3.50;99.90
59148;DHT22;44930;52.878;6.168;2023-03-05T04:18:39;3.50;99.90
59148;DHT22;44930;52.878;6.168;2023-03-05T04:21:05;3.50;99.90
59148;DHT22;44930;52.878;6.168;2023-03-05T04:23:31;3.50;99.90
59148;DHT22;44930;52.878;6.168;2023-03-05T04:28:23;3.40;99.90
59148;DHT22;44930;52.878;6.168;2023-03-05T04:30:49;3.40;99.90
59148;DHT22;44930;52.878;6.168;2023-03-05T04:33:15;3.40;99.90
59148;DHT22;44930;52.878;6.168;2023-03-05T04:35:40;3.40;99.90
59148;DHT22;44930;52.878;6.168;2023-03-05T04:38:06;3.40;99.90
59148;DHT22;44930;52.878;6.168;2023-03-05T04:40:32;3.40;99.90
59148;DHT22;44930;52.878;6.168;2023-03-05T04:42:58;3.30;99.90
59148;DHT22;44930;52.878;6.168;2023-03-05T04:45:23;3.40;99.90
59148;DHT22;44930;52.878;6.168;2023-03-05T04:47:49;3.40;99.90
59148;DHT22;44930;52.878;6.168;2023-03-05T04:50:15;3.40;99.90
59148;DHT22;44930;52.878;6.168;2023-03-05T04:52:42;3.30;99.90
59148;DHT22;44930;52.878;6.168;2023-03-05T04:55:09;3.30;99.90
59148;DHT22;44930;52.878;6.168;2023-03-05T04:57:35;3.30;99.90
59148;DHT22;44930;52.878;6.168;2023-03-05T05:00:01;3.50;99.90
59148;DHT22;44930;52.878;6.168;2023-03-05T05:02:29;3.40;99.90
59148;DHT22;44930;52.878;6.168;2023-03-05T05:04:55;3.30;99.90
59148;DHT22;44930;52.878;6.168;2023-03-05T05:07:20;3.40;99.90
59148;DHT22;44930;52.878;6.168;2023-03-05T05:09:46;3.40;99.90
59148;DHT22;44930;52.878;6.168;2023-03-05T05:12:11;3.40;99.90
59148;DHT22;44930;52.878;6.168;2023-03-05T05:14:37;3.40;99.90
59148;DHT22;44930;52.878;6.168;2023-03-05T05:17:02;3.40;99.90
59148;DHT22;44930;52.878;6.168;2023-03-05T05:19:33;3.30;99.90
59148;DHT22;44930;52.878;6.168;2023-03-05T05:21:59;3.30;99.90
59148;DHT22;44930;52.878;6.168;2023-03-05T05:24:24;3.20;99.90
59148;DHT22;44930;52.878;6.168;2023-03-05T05:26:52;3.20;99.90
59148;DHT22;44930;52.878;6.168;2023-03-05T05:29:18;3.20;99.90
59148;DHT22;44930;52.878;6.168;2023-03-05T05:31:43;3.20;99.90
59148;DHT22;44930;52.878;6.168;2023-03-05T05:34:09;3.00;99.90
59148;DHT22;44930;52.878;6.168;2023-03-05T05:36:35;3.00;99.90
59148;DHT22;44930;52.878;6.168;2023-03-05T05:39:00;3.00;99.90
59148;DHT22;44930;52.878;6.168;2023-03-05T05:41:26;3.00;99.90
59148;DHT22;44930;52.878;6.168;2023-03-05T05:43:51;3.00;99.90
59148;DHT22;44930;52.878;6.168;2023-03-05T05:46:18;2.80;99.90
59148;DHT22;44930;52.878;6.168;2023-03-05T05:51:13;2.80;99.90
59148;DHT22;44930;52.878;6.168;2023-03-05T05:53:40;2.90;99.90
59148;DHT22;44930;52.878;6.168;2023-03-05T05:56:06;3.00;99.90
59148;DHT22;44930;52.878;6.168;2023-03-05T05:58:32;2.80;99.90
59148;DHT22;44930;52.878;6.168;2023-03-05T06:00:58;2.70;99.90
59148;DHT22;44930;52.878;6.168;2023-03-05T06:03:24;2.70;99.90
59148;DHT22;44930;52.878;6.168;2023-03-05T06:05:49;2.90;99.90
59148;DHT22;44930;52.878;6.168;2023-03-05T06:10:42;3.30;99.90
59148;DHT22;44930;52.878;6.168;2023-03-05T06:13:08;3.30;99.90
59148;DHT22;44930;52.878;6.168;2023-03-05T06:15:33;3.30;99.90
59148;DHT22;44930;52.878;6.168;2023-03-05T06:17:59;3.30;99.90
59148;DHT22;44930;52.878;6.168;2023-03-05T06:20:25;3.20;99.90
59148;DHT22;44930;52.878;6.168;2023-03-05T06:22:50;3.20;99.90
59148;DHT22;44930;52.878;6.168;2023-03-05T06:25:16;3.30;99.90
59148;DHT22;44930;52.878;6.168;2023-03-05T06:27:41;3.20;99.90
59148;DHT22;44930;52.878;6.168;2023-03-05T06:30:11;3.10;99.90
59148;DHT22;44930;52.878;6.168;2023-03-05T06:32:37;3.20;99.90
59148;DHT22;44930;52.878;6.168;2023-03-05T06:35:02;3.10;99.90
59148;DHT22;44930;52.878;6.168;2023-03-05T06:39:54;3.10;99.90
59148;DHT22;44930;52.878;6.168;2023-03-05T06:42:20;2.90;99.90
59148;DHT22;44930;52.878;6.168;2023-03-05T06:44:45;2.80;99.90
59148;DHT22;44930;52.878;6.168;2023-03-05T06:47:11;3.00;99.90
59148;DHT22;44930;52.878;6.168;2023-03-05T06:49:37;3.00;99.90
59148;DHT22;44930;52.878;6.168;2023-03-05T06:52:04;3.00;99.90
59148;DHT22;44930;52.878;6.168;2023-03-05T06:54:30;2.90;99.90
59148;DHT22;44930;52.878;6.168;2023-03-05T06:56:56;2.90;99.90
59148;DHT22;44930;52.878;6.168;2023-03-05T06:59:21;2.80;99.90
59148;DHT22;44930;52.878;6.168;2023-03-05T07:01:47;2.80;99.90
59148;DHT22;44930;52.878;6.168;2023-03-05T07:04:13;2.80;99.90
59148;DHT22;44930;52.878;6.168;2023-03-05T07:06:39;2.80;99.90
59148;DHT22;44930;52.878;6.168;2023-03-05T07:09:07;2.90;99.90
59148;DHT22;44930;52.878;6.168;2023-03-05T07:11:33;2.90;99.90
59148;DHT22;44930;52.878;6.168;2023-03-05T07:13:59;2.70;99.90
59148;DHT22;44930;52.878;6.168;2023-03-05T07:16:27;2.80;99.90
59148;DHT22;44930;52.878;6.168;2023-03-05T07:18:53;3.00;99.90
59148;DHT22;44930;52.878;6.168;2023-03-05T07:23:47;2.80;99.90
59148;DHT22;44930;52.878;6.168;2023-03-05T07:26:13;2.90;99.90
59148;DHT22;44930;52.878;6.168;2023-03-05T07:28:39;3.00;99.90
59148;DHT22;44930;52.878;6.168;2023-03-05T07:31:07;3.00;99.90
59148;DHT22;44930;52.878;6.168;2023-03-05T07:33:35;2.90;99.90
59148;DHT22;44930;52.878;6.168;2023-03-05T07:36:01;3.00;99.90
59148;DHT22;44930;52.878;6.168;2023-03-05T07:38:29;3.20;99.90
59148;DHT22;44930;52.878;6.168;2023-03-05T07:40:55;3.40;99.90
59148;DHT22;44930;52.878;6.168;2023-03-05T07:43:21;3.20;99.90
59148;DHT22;44930;52.878;6.168;2023-03-05T07:45:46;3.50;99.90
59148;DHT22;44930;52.878;6.168;2023-03-05T07:48:14;3.40;99.90
59148;DHT22;44930;52.878;6.168;2023-03-05T07:50:40;3.40;99.90
59148;DHT22;44930;52.878;6.168;2023-03-05T07:53:06;3.50;99.90
59148;DHT22;44930;52.878;6.168;2023-03-05T07:55:31;3.60;99.90
59148;DHT22;44930;52.878;6.168;2023-03-05T07:57:57;3.60;99.90
59148;DHT22;44930;52.878;6.168;2023-03-05T08:00:22;3.70;99.90
59148;DHT22;44930;52.878;6.168;2023-03-05T08:02:48;3.80;99.90
59148;DHT22;44930;52.878;6.168;2023-03-05T08:05:14;3.80;99.90
59148;DHT22;44930;52.878;6.168;2023-03-05T08:07:40;3.90;99.90
59148;DHT22;44930;52.878;6.168;2023-03-05T08:10:06;4.00;99.90
59148;DHT22;44930;52.878;6.168;2023-03-05T08:12:33;4.00;99.90
59148;DHT22;44930;52.878;6.168;2023-03-05T08:14:58;4.20;99.90
59148;DHT22;44930;52.878;6.168;2023-03-05T08:17:24;4.30;99.90
59148;DHT22;44930;52.878;6.168;2023-03-05T08:19:50;4.50;99.90
59148;DHT22;44930;52.878;6.168;2023-03-05T08:22:15;4.30;99.90
59148;DHT22;44930;52.878;6.168;2023-03-05T08:24:42;4.50;99.90
59148;DHT22;44930;52.878;6.168;2023-03-05T08:27:07;4.40;99.90
59148;DHT22;44930;52.878;6.168;2023-03-05T08:29:33;4.50;99.90
59148;DHT22;44930;52.878;6.168;2023-03-05T08:31:59;4.50;99.90
59148;DHT22;44930;52.878;6.168;2023-03-05T08:34:24;4.70;99.90
59148;DHT22;44930;52.878;6.168;2023-03-05T08:36:50;4.60;99.90
59148;DHT22;44930;52.878;6.168;2023-03-05T08:39:16;4.90;99.90
59148;DHT22;44930;52.878;6.168;2023-03-05T08:41:42;5.00;99.90
59148;DHT22;44930;52.878;6.168;2023-03-05T08:44:08;5.10;99.90
59148;DHT22;44930;52.878;6.168;2023-03-05T08:46:33;5.10;99.90
59148;DHT22;44930;52.878;6.168;2023-03-05T08:48:59;5.30;99.90
59148;DHT22;44930;52.878;6.168;2023-03-05T08:51:25;5.20;99.90
59148;DHT22;44930;52.878;6.168;2023-03-05T08:53:52;5.40;99.90
59148;DHT22;44930;52.878;6.168;2023-03-05T08:56:19;5.50;99.90
59148;DHT22;44930;52.878;6.168;2023-03-05T08:58:44;5.40;99.90
59148;DHT22;44930;52.878;6.168;2023-03-05T09:01:12;5.50;99.90
59148;DHT22;44930;52.878;6.168;2023-03-05T09:03:38;5.60;99.90
59148;DHT22;44930;52.878;6.168;2023-03-05T09:06:06;5.60;99.90
59148;DHT22;44930;52.878;6.168;2023-03-05T09:08:33;5.70;99.90
59148;DHT22;44930;52.878;6.168;2023-03-05T09:11:01;5.50;99.90
59148;DHT22;44930;52.878;6.168;2023-03-05T09:13:27;5.60;99.90
59148;DHT22;44930;52.878;6.168;2023-03-05T09:18:19;5.70;99.90
59148;DHT22;44930;52.878;6.168;2023-03-05T09:20:45;5.80;99.90
59148;DHT22;44930;52.878;6.168;2023-03-05T09:23:11;6.00;99.90
59148;DHT22;44930;52.878;6.168;2023-03-05T09:25:39;5.90;99.90
59148;DHT22;44930;52.878;6.168;2023-03-05T09:30:31;5.90;99.90
59148;DHT22;44930;52.878;6.168;2023-03-05T09:32:58;5.90;99.90
59148;DHT22;44930;52.878;6.168;2023-03-05T09:35:24;5.90;99.90
59148;DHT22;44930;52.878;6.168;2023-03-05T09:40:18;6.10;99.90
59148;DHT22;44930;52.878;6.168;2023-03-05T09:43:17;5.60;99.90
59148;DHT22;44930;52.878;6.168;2023-03-05T09:46:14;6.00;99.90
59148;DHT22;44930;52.878;6.168;2023-03-05T09:48:51;6.10;99.90
59148;DHT22;44930;52.878;6.168;2023-03-05T09:51:22;6.00;99.90
59148;DHT22;44930;52.878;6.168;2023-03-05T09:53:56;6.10;99.90
59148;DHT22;44930;52.878;6.168;2023-03-05T09:56:28;6.20;99.90
59148;DHT22;44930;52.878;6.168;2023-03-05T10:01:36;6.70;99.90
59148;DHT22;44930;52.878;6.168;2023-03-05T10:04:12;6.50;99.90
59148;DHT22;44930;52.878;6.168;2023-03-05T10:07:04;6.60;99.90
59148;DHT22;44930;52.878;6.168;2023-03-05T10:09:54;6.70;99.90
59148;DHT22;44930;52.878;6.168;2023-03-05T10:12:38;6.80;99.90
59148;DHT22;44930;52.878;6.168;2023-03-05T10:15:23;6.70;99.90
59148;DHT22;44930;52.878;6.168;2023-03-05T10:20:40;6.70;99.90
59148;DHT22;44930;52.878;6.168;2023-03-05T10:23:31;6.70;99.90
59148;DHT22;44930;52.878;6.168;2023-03-05T10:26:09;6.80;99.90
59148;DHT22;44930;52.878;6.168;2023-03-05T10:34:03;6.00;99.90
59148;DHT22;44930;52.878;6.168;2023-03-05T10:47:15;5.10;99.90
59148;DHT22;44930;52.878;6.168;2023-03-05T10:49:50;5.40;99.90
59148;DHT22;44930;52.878;6.168;2023-03-05T10:52:18;5.60;99.90
59148;DHT22;44930;52.878;6.168;2023-03-05T10:54:44;5.70;99.90
59148;DHT22;44930;52.878;6.168;2023-03-05T10:57:27;6.10;99.90
59148;DHT22;44930;52.878;6.168;2023-03-05T11:03:04;6.20;99.90
59148;DHT22;44930;52.878;6.168;2023-03-05T11:05:48;6.30;99.90
59148;DHT22;44930;52.878;6.168;2023-03-05T11:10:46;6.90;99.90
59148;DHT22;44930;52.878;6.168;2023-03-05T11:13:25;7.00;99.90
59148;DHT22;44930;52.878;6.168;2023-03-05T11:16:03;6.50;99.90
59148;DHT22;44930;52.878;6.168;2023-03-05T11:18:30;6.30;99.90
59148;DHT22;44930;52.878;6.168;2023-03-05T11:23:42;6.00;99.90
59148;DHT22;44930;52.878;6.168;2023-03-05T11:31:22;6.60;99.90
59148;DHT22;44930;52.878;6.168;2023-03-05T11:34:23;6.50;99.90
59148;DHT22;44930;52.878;6.168;2023-03-05T11:39:19;6.50;99.90
59148;DHT22;44930;52.878;6.168;2023-03-05T11:41:55;6.90;99.90
59148;DHT22;44930;52.878;6.168;2023-03-05T11:47:01;6.80;99.90
59148;DHT22;44930;52.878;6.168;2023-03-05T11:49:29;7.10;99.90
59148;DHT22;44930;52.878;6.168;2023-03-05T11:54:38;7.40;99.90
59148;DHT22;44930;52.878;6.168;2023-03-05T11:57:10;7.20;99.90
59148;DHT22;44930;52.878;6.168;2023-03-05T11:59:36;7.20;99.90
59148;DHT22;44930;52.878;6.168;2023-03-05T12:02:15;7.60;99.90
59148;DHT22;44930;52.878;6.168;2023-03-05T12:04:42;7.40;99.90
59148;DHT22;44930;52.878;6.168;2023-03-05T12:07:12;7.30;99.90
59148;DHT22;44930;52.878;6.168;2023-03-05T12:09:46;7.80;99.90
59148;DHT22;44930;52.878;6.168;2023-03-05T12:23:20;7.20;99.90
59148;DHT22;44930;52.878;6.168;2023-03-05T12:25:54;7.20;99.90
59148;DHT22;44930;52.878;6.168;2023-03-05T12:31:02;7.10;99.90
59148;DHT22;44930;52.878;6.168;2023-03-05T12:33:40;7.30;99.90
59148;DHT22;44930;52.878;6.168;2023-03-05T12:36:33;6.60;99.90
59148;DHT22;44930;52.878;6.168;2023-03-05T12:41:32;7.30;99.90
59148;DHT22;44930;52.878;6.168;2023-03-05T12:46:41;7.00;99.90
59148;DHT22;44930;52.878;6.168;2023-03-05T12:56:45;7.80;99.90
59148;DHT22;44930;52.878;6.168;2023-03-05T12:59:11;7.80;99.90
59148;DHT22;44930;52.878;6.168;2023-03-05T13:01:58;8.00;99.90
59148;DHT22;44930;52.878;6.168;2023-03-05T13:04:30;7.90;99.90
59148;DHT22;44930;52.878;6.168;2023-03-05T13:09:26;8.50;99.90
59148;DHT22;44930;52.878;6.168;2023-03-05T13:11:53;8.40;99.90
59148;DHT22;44930;52.878;6.168;2023-03-05T13:17:27;8.30;99.90
59148;DHT22;44930;52.878;6.168;2023-03-05T13:19:53;8.50;99.90
59148;DHT22;44930;52.878;6.168;2023-03-05T13:22:19;8.40;99.90
59148;DHT22;44930;52.878;6.168;2023-03-05T13:24:45;8.20;99.90
59148;DHT22;44930;52.878;6.168;2023-03-05T13:27:31;8.10;99.90
59148;DHT22;44930;52.878;6.168;2023-03-05T13:29:56;8.10;99.90
59148;DHT22;44930;52.878;6.168;2023-03-05T13:34:58;8.10;99.90
59148;DHT22;44930;52.878;6.168;2023-03-05T13:37:32;8.00;99.90
59148;DHT22;44930;52.878;6.168;2023-03-05T13:40:18;7.60;99.90
59148;DHT22;44930;52.878;6.168;2023-03-05T13:42:44;7.90;99.90
59148;DHT22;44930;52.878;6.168;2023-03-05T13:45:29;8.20;99.90
59148;DHT22;44930;52.878;6.168;2023-03-05T13:48:03;7.80;99.90
59148;DHT22;44930;52.878;6.168;2023-03-05T13:50:38;7.70;99.90
59148;DHT22;44930;52.878;6.168;2023-03-05T13:53:15;7.50;99.90
59148;DHT22;44930;52.878;6.168;2023-03-05T13:55:42;7.50;99.90
59148;DHT22;44930;52.878;6.168;2023-03-05T14:01:32;7.20;99.90
59148;DHT22;44930;52.878;6.168;2023-03-05T14:07:00;6.80;99.90
59148;DHT22;44930;52.878;6.168;2023-03-05T14:09:31;6.90;99.90
59148;DHT22;44930;52.878;6.168;2023-03-05T14:12:03;6.60;99.90
59148;DHT22;44930;52.878;6.168;2023-03-05T14:14:34;7.20;99.90
59148;DHT22;44930;52.878;6.168;2023-03-05T14:17:20;6.60;99.90
59148;DHT22;44930;52.878;6.168;2023-03-05T14:19:46;7.00;99.90
59148;DHT22;44930;52.878;6.168;2023-03-05T14:22:32;6.50;99.90
59148;DHT22;44930;52.878;6.168;2023-03-05T14:24:58;6.80;99.90
59148;DHT22;44930;52.878;6.168;2023-03-05T14:27:33;6.80;99.90
59148;DHT22;44930;52.878;6.168;2023-03-05T14:29:59;6.60;99.90
59148;DHT22;44930;52.878;6.168;2023-03-05T14:35:00;6.90;99.90
59148;DHT22;44930;52.878;6.168;2023-03-05T14:37:38;6.80;99.90
59148;DHT22;44930;52.878;6.168;2023-03-05T14:45:17;6.80;99.90
59148;DHT22;44930;52.878;6.168;2023-03-05T14:47:43;6.80;99.90
59148;DHT22;44930;52.878;6.168;2023-03-05T14:50:18;6.90;99.90
59148;DHT22;44930;52.878;6.168;2023-03-05T14:52:45;6.50;99.90
59148;DHT22;44930;52.878;6.168;2023-03-05T14:55:20;6.70;99.90
59148;DHT22;44930;52.878;6.168;2023-03-05T14:57:46;6.60;99.90
59148;DHT22;44930;52.878;6.168;2023-03-05T15:02:42;6.90;99.90
59148;DHT22;44930;52.878;6.168;2023-03-05T15:05:07;6.80;99.90
59148;DHT22;44930;52.878;6.168;2023-03-05T15:07:33;6.80;99.90
59148;DHT22;44930;52.878;6.168;2023-03-05T15:12:25;7.00;99.90
59148;DHT22;44930;52.878;6.168;2023-03-05T15:14:52;7.00;99.90
59148;DHT22;44930;52.878;6.168;2023-03-05T15:17:41;7.00;99.90
59148;DHT22;44930;52.878;6.168;2023-03-05T15:25:22;6.80;99.90
59148;DHT22;44930;52.878;6.168;2023-03-05T15:27:49;7.00;99.90
59148;DHT22;44930;52.878;6.168;2023-03-05T15:32:56;6.80;99.90
59148;DHT22;44930;52.878;6.168;2023-03-05T15:35:23;6.70;99.90
59148;DHT22;44930;52.878;6.168;2023-03-05T15:37:50;6.60;99.90
59148;DHT22;44930;52.878;6.168;2023-03-05T15:40:16;6.70;99.90
59148;DHT22;44930;52.878;6.168;2023-03-05T15:45:07;6.60;99.90
59148;DHT22;44930;52.878;6.168;2023-03-05T15:47:33;6.50;99.90
59148;DHT22;44930;52.878;6.168;2023-03-05T15:49:59;6.60;99.90
59148;DHT22;44930;52.878;6.168;2023-03-05T15:52:24;6.50;99.90
59148;DHT22;44930;52.878;6.168;2023-03-05T15:54:50;6.50;99.90
59148;DHT22;44930;52.878;6.168;2023-03-05T15:57:15;6.50;99.90
59148;DHT22;44930;52.878;6.168;2023-03-05T15:59:43;6.50;99.90
59148;DHT22;44930;52.878;6.168;2023-03-05T16:02:09;6.60;99.90
59148;DHT22;44930;52.878;6.168;2023-03-05T16:04:34;6.50;99.90
59148;DHT22;44930;52.878;6.168;2023-03-05T16:07:01;6.40;99.90
59148;DHT22;44930;52.878;6.168;2023-03-05T16:09:30;6.40;99.90
59148;DHT22;44930;52.878;6.168;2023-03-05T16:11:56;6.50;99.90
59148;DHT22;44930;52.878;6.168;2023-03-05T16:16:52;6.40;99.90
59148;DHT22;44930;52.878;6.168;2023-03-05T16:19:20;6.40;99.90
59148;DHT22;44930;52.878;6.168;2023-03-05T16:26:39;6.30;99.90
59148;DHT22;44930;52.878;6.168;2023-03-05T16:29:05;6.20;99.90
59148;DHT22;44930;52.878;6.168;2023-03-05T16:31:32;6.10;99.90
59148;DHT22;44930;52.878;6.168;2023-03-05T16:33:59;6.20;99.90
59148;DHT22;44930;52.878;6.168;2023-03-05T16:36:26;6.30;99.90
59148;DHT22;44930;52.878;6.168;2023-03-05T16:38:54;6.40;99.90
59148;DHT22;44930;52.878;6.168;2023-03-05T16:41:20;6.30;99.90
59148;DHT22;44930;52.878;6.168;2023-03-05T16:43:48;6.40;99.90
59148;DHT22;44930;52.878;6.168;2023-03-05T16:46:14;6.20;99.90
59148;DHT22;44930;52.878;6.168;2023-03-05T16:48:41;6.20;99.90
59148;DHT22;44930;52.878;6.168;2023-03-05T16:51:08;6.10;99.90
59148;DHT22;44930;52.878;6.168;2023-03-05T16:53:34;6.10;99.90
59148;DHT22;44930;52.878;6.168;2023-03-05T16:56:04;6.00;99.90
59148;DHT22;44930;52.878;6.168;2023-03-05T17:00:58;6.10;99.90
59148;DHT22;44930;52.878;6.168;2023-03-05T17:03:23;6.00;99.90
59148;DHT22;44930;52.878;6.168;2023-03-05T17:05:49;6.00;99.90
59148;DHT22;44930;52.878;6.168;2023-03-05T17:08:15;5.80;99.90
59148;DHT22;44930;52.878;6.168;2023-03-05T17:10:41;5.80;99.90
59148;DHT22;44930;52.878;6.168;2023-03-05T17:13:07;5.80;99.90
59148;DHT22;44930;52.878;6.168;2023-03-05T17:15:33;5.70;99.90
59148;DHT22;44930;52.878;6.168;2023-03-05T17:17:58;5.60;99.90
59148;DHT22;44930;52.878;6.168;2023-03-05T17:22:50;5.40;99.90
59148;DHT22;44930;52.878;6.168;2023-03-05T17:25:15;5.40;99.90
59148;DHT22;44930;52.878;6.168;2023-03-05T17:27:41;5.30;99.90
59148;DHT22;44930;52.878;6.168;2023-03-05T17:30:07;5.10;99.90
59148;DHT22;44930;52.878;6.168;2023-03-05T17:32:34;5.10;99.90
59148;DHT22;44930;52.878;6.168;2023-03-05T17:34:59;5.10;99.90
59148;DHT22;44930;52.878;6.168;2023-03-05T17:37:25;5.10;99.90
59148;DHT22;44930;52.878;6.168;2023-03-05T17:39:51;5.00;99.90
59148;DHT22;44930;52.878;6.168;2023-03-05T17:42:16;5.00;99.90
59148;DHT22;44930;52.878;6.168;2023-03-05T17:44:45;4.90;99.90
59148;DHT22;44930;52.878;6.168;2023-03-05T17:47:11;4.90;99.90
59148;DHT22;44930;52.878;6.168;2023-03-05T17:49:37;4.60;99.90
59148;DHT22;44930;52.878;6.168;2023-03-05T17:52:02;4.80;99.90
59148;DHT22;44930;52.878;6.168;2023-03-05T17:54:28;4.50;99.90
59148;DHT22;44930;52.878;6.168;2023-03-05T17:56:54;4.60;99.90
59148;DHT22;44930;52.878;6.168;2023-03-05T17:59:20;4.50;99.90
59148;DHT22;44930;52.878;6.168;2023-03-05T18:01:46;4.50;99.90
59148;DHT22;44930;52.878;6.168;2023-03-05T18:04:12;4.30;99.90
59148;DHT22;44930;52.878;6.168;2023-03-05T18:06:39;4.30;99.90
59148;DHT22;44930;52.878;6.168;2023-03-05T18:09:06;4.20;99.90
59148;DHT22;44930;52.878;6.168;2023-03-05T18:11:31;4.10;99.90
59148;DHT22;44930;52.878;6.168;2023-03-05T18:13:57;4.10;99.90
59148;DHT22;44930;52.878;6.168;2023-03-05T18:16:23;4.00;99.90
59148;DHT22;44930;52.878;6.168;2023-03-05T18:18:50;4.00;99.90
59148;DHT22;44930;52.878;6.168;2023-03-05T18:21:19;3.90;99.90
59148;DHT22;44930;52.878;6.168;2023-03-05T18:23:45;3.80;99.90
59148;DHT22;44930;52.878;6.168;2023-03-05T18:31:03;3.50;99.90
59148;DHT22;44930;52.878;6.168;2023-03-05T18:35:56;3.30;99.90
59148;DHT22;44930;52.878;6.168;2023-03-05T18:38:24;3.20;99.90
59148;DHT22;44930;52.878;6.168;2023-03-05T18:40:50;3.30;99.90
59148;DHT22;44930;52.878;6.168;2023-03-05T18:43:18;3.20;99.90
59148;DHT22;44930;52.878;6.168;2023-03-05T18:45:49;3.10;99.90
59148;DHT22;44930;52.878;6.168;2023-03-05T18:48:15;3.30;99.90
59148;DHT22;44930;52.878;6.168;2023-03-05T18:50:41;3.40;99.90